createdAt,value
2023-03-12T00:00:08.409Z,50.84
2023-03-12T00:02:56.019Z,50.78
2023-03-12T00:05:25.356Z,51.23
2023-03-12T00:07:52.900Z,51.09
2023-03-12T00:10:20.651Z,50.98
2023-03-12T00:12:47.367Z,51.00
2023-03-12T00:15:14.033Z,51.25
2023-03-12T00:17:40.669Z,51.16
2023-03-12T00:20:07.717Z,51.12
2023-03-12T00:22:34.285Z,51.36
2023-03-12T00:25:01.519Z,51.29
2023-03-12T00:27:28.397Z,51.45
2023-03-12T00:29:55.227Z,51.63
2023-03-12T00:32:22.555Z,51.21
2023-03-12T00:34:54.023Z,51.48
2023-03-12T00:37:21.647Z,51.34
2023-03-12T00:39:48.310Z,51.78
2023-03-12T00:42:15.071Z,51.64
2023-03-12T00:44:42.910Z,51.82
2023-03-12T00:47:10.345Z,52.00
2023-03-12T00:49:37.409Z,51.60
2023-03-12T00:52:05.277Z,51.92
2023-03-12T00:54:32.325Z,52.12
2023-03-12T00:56:58.960Z,52.51
2023-03-12T00:59:25.808Z,52.23
2023-03-12T01:01:52.316Z,52.26
2023-03-12T01:04:18.986Z,52.41
2023-03-12T01:06:45.768Z,52.36
2023-03-12T01:09:12.491Z,52.60
2023-03-12T01:11:39.122Z,52.79
2023-03-12T01:14:08.236Z,52.64
2023-03-12T01:16:35.092Z,52.84
2023-03-12T01:19:03.351Z,52.98
2023-03-12T01:21:30.489Z,52.78
2023-03-12T01:23:57.462Z,53.13
2023-03-12T01:26:24.325Z,53.27
2023-03-12T01:28:51.350Z,53.57
2023-03-12T01:31:18.906Z,54.10
2023-03-12T01:33:50.912Z,54.58
2023-03-12T01:36:26.444Z,54.69
2023-03-12T01:38:57.266Z,55.04
2023-03-12T01:41:26.848Z,55.06
2023-03-12T01:43:53.609Z,55.02
2023-03-12T01:46:29.127Z,55.58
2023-03-12T01:48:56.568Z,55.71
2023-03-12T01:51:27.278Z,55.83
2023-03-12T01:53:57.746Z,55.72
2023-03-12T01:56:27.641Z,55.87
2023-03-12T01:58:56.919Z,55.61
2023-03-12T02:01:24.947Z,55.46
2023-03-12T02:03:55.428Z,55.50
2023-03-12T02:06:30.072Z,55.34
2023-03-12T02:08:59.972Z,55.30
2023-03-12T02:11:26.725Z,55.01
2023-03-12T02:13:53.866Z,54.47
2023-03-12T02:16:20.718Z,54.28
2023-03-12T02:18:50.314Z,54.77
2023-03-12T02:21:26.893Z,54.57
2023-03-12T02:24:07.856Z,54.72
2023-03-12T02:26:37.174Z,54.70
2023-03-12T02:29:04.953Z,55.10
2023-03-12T02:31:38.500Z,54.67
2023-03-12T02:34:05.456Z,55.02
2023-03-12T02:36:32.239Z,55.28
2023-03-12T02:38:59.120Z,55.00
2023-03-12T02:41:50.483Z,54.90
2023-03-12T02:44:29.816Z,54.91
2023-03-12T02:46:59.620Z,54.95
2023-03-12T02:49:30.804Z,54.73
2023-03-12T02:51:59.461Z,54.73
2023-03-12T02:54:27.223Z,54.82
2023-03-12T02:56:54.408Z,54.72
2023-03-12T02:59:25.515Z,54.77
2023-03-12T03:01:58.715Z,54.58
2023-03-12T03:04:27.474Z,54.68
2023-03-12T03:06:54.571Z,54.76
2023-03-12T03:09:21.927Z,54.46
2023-03-12T03:11:49.555Z,54.53
2023-03-12T03:14:17.123Z,54.65
2023-03-12T03:16:44.557Z,54.34
2023-03-12T03:19:11.193Z,54.52
2023-03-12T03:21:37.953Z,54.10
2023-03-12T03:24:05.627Z,53.88
2023-03-12T03:26:32.272Z,54.35
2023-03-12T03:28:58.958Z,54.17
2023-03-12T03:31:25.830Z,53.93
2023-03-12T03:33:52.824Z,54.01
2023-03-12T03:36:19.726Z,53.89
2023-03-12T03:38:53.464Z,53.77
2023-03-12T03:41:20.768Z,53.86
2023-03-12T03:43:47.504Z,53.73
2023-03-12T03:46:15.830Z,53.37
2023-03-12T03:48:44.464Z,53.41
2023-03-12T03:51:12.048Z,53.43
2023-03-12T03:53:41.322Z,53.11
2023-03-12T03:56:11.163Z,53.07
2023-03-12T03:58:39.541Z,53.05
2023-03-12T04:01:06.438Z,53.18
2023-03-12T04:03:34.068Z,53.03
2023-03-12T04:06:04.453Z,52.84
2023-03-12T04:08:34.804Z,52.86
2023-03-12T04:11:09.987Z,52.67
2023-03-12T04:13:37.562Z,52.77
2023-03-12T04:16:05.090Z,52.69
2023-03-12T04:18:35.449Z,53.05
2023-03-12T04:21:04.177Z,53.06
2023-03-12T04:23:31.657Z,53.21
2023-03-12T04:25:58.560Z,52.86
2023-03-12T04:28:25.282Z,52.88
2023-03-12T04:31:01.831Z,52.84
2023-03-12T04:33:38.187Z,52.81
2023-03-12T04:36:06.397Z,53.20
2023-03-12T04:38:34.186Z,52.70
2023-03-12T04:41:07.408Z,53.32
2023-03-12T04:43:35.197Z,53.16
2023-03-12T04:46:05.576Z,53.12
2023-03-12T04:48:33.123Z,53.67
2023-03-12T04:50:59.707Z,53.29
2023-03-12T04:53:26.759Z,53.52
2023-03-12T04:55:53.576Z,53.37
2023-03-12T04:58:21.301Z,53.39
2023-03-12T05:00:49.305Z,53.52
2023-03-12T05:03:16.984Z,53.54
2023-03-12T05:05:44.959Z,53.47
2023-03-12T05:08:12.074Z,53.26
2023-03-12T05:10:38.960Z,53.17
2023-03-12T05:13:17.231Z,53.37
2023-03-12T05:15:44.736Z,53.17
2023-03-12T05:18:11.461Z,53.25
2023-03-12T05:20:38.372Z,53.49
2023-03-12T05:23:05.356Z,53.12
2023-03-12T05:25:32.201Z,52.72
2023-03-12T05:27:58.929Z,52.92
2023-03-12T05:30:25.634Z,52.86
2023-03-12T05:32:52.512Z,52.91
2023-03-12T05:35:19.406Z,52.54
2023-03-12T05:37:46.241Z,52.71
2023-03-12T05:40:13.462Z,52.59
2023-03-12T05:42:40.894Z,52.65
2023-03-12T05:45:08.672Z,52.37
2023-03-12T05:47:36.169Z,52.72
2023-03-12T05:50:03.033Z,52.83
2023-03-12T05:52:30.259Z,52.72
2023-03-12T05:54:57.224Z,52.48
2023-03-12T05:57:23.977Z,52.73
2023-03-12T05:59:51.527Z,53.09
2023-03-12T06:02:19.576Z,52.72
2023-03-12T06:04:46.309Z,52.53
2023-03-12T06:07:13.301Z,52.86
2023-03-12T06:09:41.276Z,52.67
2023-03-12T06:12:08.107Z,52.95
2023-03-12T06:14:35.294Z,52.82
2023-03-12T06:17:02.132Z,52.72
2023-03-12T06:19:28.832Z,52.26
2023-03-12T06:21:55.493Z,52.45
2023-03-12T06:24:22.281Z,52.18
2023-03-12T06:26:54.337Z,51.61
2023-03-12T06:29:20.948Z,51.84
2023-03-12T06:31:47.870Z,51.58
2023-03-12T06:34:16.201Z,51.46
2023-03-12T06:36:43.038Z,51.15
2023-03-12T06:39:09.749Z,50.75
2023-03-12T06:41:36.996Z,50.10
2023-03-12T06:44:05.579Z,49.84
2023-03-12T06:46:32.766Z,49.31
2023-03-12T06:48:59.441Z,49.10
2023-03-12T06:51:26.255Z,48.11
2023-03-12T06:53:52.936Z,47.66
2023-03-12T06:56:19.601Z,48.14
2023-03-12T06:58:46.432Z,44.95
2023-03-12T07:01:13.066Z,41.69
2023-03-12T07:03:39.704Z,39.06
2023-03-12T07:06:14.337Z,36.22
2023-03-12T07:08:41.303Z,31.69
2023-03-12T07:11:08.696Z,28.05
2023-03-12T07:13:35.481Z,28.37
2023-03-12T07:16:03.157Z,29.18
2023-03-12T07:18:29.883Z,28.36
2023-03-12T07:20:56.812Z,26.67
2023-03-12T07:23:23.694Z,26.19
2023-03-12T07:25:50.856Z,26.86
2023-03-12T07:28:18.889Z,26.91
2023-03-12T07:30:52.144Z,26.49
2023-03-12T07:33:21.128Z,25.45
2023-03-12T07:35:51.491Z,23.63
2023-03-12T07:38:18.930Z,22.36
2023-03-12T07:40:51.431Z,22.26
2023-03-12T07:43:20.496Z,22.56
2023-03-12T07:45:50.036Z,24.59
2023-03-12T07:48:19.156Z,24.59
2023-03-12T07:50:46.162Z,25.23
2023-03-12T07:53:12.805Z,24.41
2023-03-12T07:55:39.587Z,23.21
2023-03-12T07:58:06.558Z,25.03
2023-03-12T08:00:33.188Z,24.94
2023-03-12T08:03:00.100Z,25.61
2023-03-12T08:05:27.217Z,25.46
2023-03-12T08:07:54.809Z,24.54
2023-03-12T08:10:22.028Z,24.45
2023-03-12T08:12:49.426Z,23.35
2023-03-12T08:15:16.231Z,23.42
2023-03-12T08:17:43.173Z,22.67
2023-03-12T08:20:11.252Z,21.70
2023-03-12T08:22:38.524Z,21.71
2023-03-12T08:25:06.409Z,20.84
2023-03-12T08:27:33.487Z,20.45
2023-03-12T08:30:00.408Z,19.66
2023-03-12T08:32:27.900Z,18.89
2023-03-12T08:34:54.564Z,18.82
2023-03-12T08:37:22.630Z,18.91
2023-03-12T08:39:49.386Z,18.69
2023-03-12T08:42:16.181Z,17.69
2023-03-12T08:44:42.855Z,16.70
2023-03-12T08:47:09.699Z,16.73
2023-03-12T08:49:36.287Z,17.21
2023-03-12T08:52:03.187Z,17.80
2023-03-12T08:54:30.021Z,16.69
2023-03-12T08:56:56.659Z,16.60
2023-03-12T08:59:23.321Z,17.05
2023-03-12T09:01:50.762Z,16.10
2023-03-12T09:04:17.953Z,16.22
2023-03-12T09:06:44.961Z,16.23
2023-03-12T09:09:12.210Z,15.98
2023-03-12T09:11:39.356Z,16.40
2023-03-12T09:16:53.147Z,15.76
2023-03-12T09:19:20.682Z,15.26
2023-03-12T09:21:47.555Z,15.56
2023-03-12T09:24:14.282Z,14.99
2023-03-12T09:26:40.873Z,14.31
2023-03-12T09:29:07.539Z,14.71
2023-03-12T09:31:35.842Z,14.12
2023-03-12T09:34:04.193Z,14.70
2023-03-12T09:36:31.336Z,14.29
2023-03-12T09:38:58.298Z,14.55
2023-03-12T09:41:28.700Z,14.02
2023-03-12T09:44:28.528Z,13.88
2023-03-12T09:47:00.357Z,13.46
2023-03-12T09:49:48.289Z,13.63
2023-03-12T09:52:23.973Z,13.48
2023-03-12T09:55:06.598Z,13.08
2023-03-12T09:57:34.074Z,13.28
2023-03-12T10:00:01.303Z,12.43
2023-03-12T10:03:07.449Z,12.68
2023-03-12T10:05:43.729Z,12.30
2023-03-12T10:08:28.193Z,12.42
2023-03-12T10:11:21.347Z,12.15
2023-03-12T10:14:07.736Z,12.10
2023-03-12T10:17:06.751Z,11.55
2023-03-12T10:19:33.269Z,11.52
2023-03-12T10:22:22.752Z,11.27
2023-03-12T10:25:21.351Z,10.94
2023-03-12T10:27:48.296Z,10.85
2023-03-12T10:30:26.381Z,10.50
2023-03-12T10:33:00.641Z,10.71
2023-03-12T10:35:32.180Z,10.17
2023-03-12T10:38:01.381Z,10.19
2023-03-12T10:40:35.257Z,10.21
2023-03-12T10:43:03.274Z,9.61
2023-03-12T10:45:43.454Z,10.19
2023-03-12T10:48:18.394Z,10.11
2023-03-12T10:51:00.838Z,9.44
2023-03-12T10:53:31.369Z,9.49
2023-03-12T10:56:08.681Z,9.91
2023-03-12T10:58:50.343Z,9.45
2023-03-12T11:01:27.370Z,9.83
2023-03-12T11:04:14.538Z,10.47
2023-03-12T11:06:41.375Z,10.08
2023-03-12T11:09:19.325Z,9.46
2023-03-12T11:11:48.524Z,9.59
2023-03-12T11:14:24.572Z,9.34
2023-03-12T11:16:53.143Z,10.02
2023-03-12T11:19:32.361Z,10.10
2023-03-12T11:22:04.960Z,9.83
2023-03-12T11:24:31.688Z,9.76
2023-03-12T11:27:19.513Z,9.68
2023-03-12T11:29:49.829Z,9.80
2023-03-12T11:32:19.529Z,10.31
2023-03-12T11:34:49.494Z,10.83
2023-03-12T11:37:25.452Z,10.10
2023-03-12T11:40:20.373Z,10.43
2023-03-12T11:43:02.112Z,10.07
2023-03-12T11:45:34.486Z,10.01
2023-03-12T11:48:25.550Z,10.27
2023-03-12T11:51:00.703Z,10.86
2023-03-12T11:53:30.494Z,10.58
2023-03-12T11:56:12.871Z,10.42
2023-03-12T11:58:52.298Z,10.70
2023-03-12T12:01:48.235Z,10.81
2023-03-12T12:04:33.725Z,10.85
2023-03-12T12:07:09.505Z,11.25
2023-03-12T12:09:39.164Z,11.04
2023-03-12T12:12:24.430Z,10.97
2023-03-12T12:15:13.822Z,11.13
2023-03-12T12:17:41.174Z,10.49
2023-03-12T12:20:16.462Z,10.94
2023-03-12T12:23:06.750Z,10.99
2023-03-12T12:25:57.222Z,11.08
2023-03-12T12:28:56.144Z,10.87
2023-03-12T12:31:32.743Z,11.51
2023-03-12T12:34:26.209Z,10.99
2023-03-12T12:37:18.405Z,11.14
2023-03-12T12:40:08.161Z,10.92
2023-03-12T12:42:45.622Z,10.74
2023-03-12T12:45:15.003Z,10.98
2023-03-12T12:47:55.041Z,10.92
2023-03-12T12:50:26.557Z,10.96
2023-03-12T12:53:17.316Z,10.59
2023-03-12T12:56:30.514Z,10.25
2023-03-12T12:59:24.597Z,10.42
2023-03-12T13:01:55.324Z,10.59
2023-03-12T13:04:33.889Z,10.43
2023-03-12T13:07:12.383Z,10.47
2023-03-12T13:09:44.898Z,10.48
2023-03-12T13:12:14.378Z,10.37
2023-03-12T13:14:43.476Z,10.29
2023-03-12T13:17:26.726Z,10.61
2023-03-12T13:20:01.747Z,11.02
2023-03-12T13:22:34.728Z,10.69
2023-03-12T13:25:04.704Z,11.20
2023-03-12T13:27:38.003Z,11.26
2023-03-12T13:30:32.636Z,11.67
2023-03-12T13:33:01.148Z,11.64
2023-03-12T13:35:36.673Z,11.84
2023-03-12T13:38:05.148Z,12.28
2023-03-12T13:40:31.840Z,12.42
2023-03-12T13:43:07.375Z,12.71
2023-03-12T13:45:39.716Z,12.95
2023-03-12T13:48:19.818Z,12.61
2023-03-12T13:50:56.511Z,13.34
2023-03-12T13:53:27.308Z,13.56
2023-03-12T13:56:16.447Z,13.58
2023-03-12T13:58:56.615Z,13.45
2023-03-12T14:01:31.401Z,13.77
2023-03-12T14:04:06.306Z,14.24
2023-03-12T14:06:58.175Z,14.93
2023-03-12T14:09:51.438Z,15.05
2023-03-12T14:12:39.315Z,15.31
2023-03-12T14:15:28.946Z,15.96
2023-03-12T14:18:00.464Z,16.31
2023-03-12T14:20:29.183Z,16.79
2023-03-12T14:23:05.234Z,17.48
2023-03-12T14:25:31.937Z,17.94
2023-03-12T14:27:59.247Z,18.44
2023-03-12T14:30:33.180Z,19.05
2023-03-12T14:33:02.385Z,19.38
2023-03-12T14:35:37.026Z,19.75
2023-03-12T14:38:24.634Z,20.29
2023-03-12T14:41:06.350Z,20.61
2023-03-12T14:43:34.490Z,20.53
2023-03-12T14:46:05.459Z,21.26
2023-03-12T14:48:35.351Z,21.30
2023-03-12T14:51:05.053Z,21.72
2023-03-12T14:53:35.033Z,21.97
2023-03-12T14:56:24.362Z,22.36
2023-03-12T14:58:52.119Z,22.44
2023-03-12T15:01:25.590Z,22.51
2023-03-12T15:03:57.982Z,22.88
2023-03-12T15:06:30.367Z,23.24
2023-03-12T15:08:59.098Z,23.98
2023-03-12T15:11:27.947Z,24.35
2023-03-12T15:14:01.049Z,24.85
2023-03-12T15:16:28.060Z,25.16
2023-03-12T15:18:55.866Z,25.49
2023-03-12T15:21:23.403Z,25.96
2023-03-12T15:23:50.354Z,26.37
2023-03-12T15:26:19.949Z,26.78
2023-03-12T15:29:01.751Z,27.65
2023-03-12T15:31:42.292Z,27.59
2023-03-12T15:34:12.439Z,27.67
2023-03-12T15:36:46.911Z,28.59
2023-03-12T15:39:25.928Z,28.36
2023-03-12T15:41:54.589Z,28.67
2023-03-12T15:44:44.766Z,28.51
2023-03-12T15:47:16.728Z,28.64
2023-03-12T15:49:48.170Z,29.01
2023-03-12T15:52:17.881Z,29.57
2023-03-12T15:55:03.878Z,29.53
2023-03-12T15:57:33.549Z,29.87
2023-03-12T16:00:11.591Z,30.41
2023-03-12T16:02:56.560Z,30.29
2023-03-12T16:05:32.755Z,30.61
2023-03-12T16:08:13.701Z,30.64
2023-03-12T16:10:40.949Z,30.61
2023-03-12T16:13:13.766Z,30.99
2023-03-12T16:15:40.775Z,31.23
2023-03-12T16:18:15.793Z,31.37
2023-03-12T16:20:43.440Z,31.12
2023-03-12T16:23:10.216Z,31.03
2023-03-12T16:25:38.090Z,31.02
2023-03-12T16:28:06.164Z,31.26
2023-03-12T16:30:36.018Z,31.25
2023-03-12T16:33:08.652Z,31.01
2023-03-12T16:35:35.727Z,31.13
2023-03-12T16:38:03.482Z,31.07
2023-03-12T16:40:34.112Z,31.57
2023-03-12T16:43:05.281Z,31.67
2023-03-12T16:45:35.549Z,31.45
2023-03-12T16:48:06.185Z,31.39
2023-03-12T16:50:32.896Z,31.30
2023-03-12T16:53:02.587Z,31.51
2023-03-12T16:55:31.997Z,31.63
2023-03-12T16:58:00.739Z,31.81
2023-03-12T17:00:30.263Z,31.60
2023-03-12T17:02:58.091Z,32.13
2023-03-12T17:05:27.236Z,32.13
2023-03-12T17:07:54.760Z,32.07
2023-03-12T17:10:22.029Z,32.48
2023-03-12T17:12:49.463Z,32.71
2023-03-12T17:15:30.131Z,32.59
2023-03-12T17:17:59.001Z,32.61
2023-03-12T17:20:25.888Z,32.67
2023-03-12T17:22:52.625Z,32.84
2023-03-12T17:25:24.249Z,33.41
2023-03-12T17:27:51.718Z,33.47
2023-03-12T17:30:20.176Z,33.54
2023-03-12T17:32:47.087Z,33.44
2023-03-12T17:35:13.979Z,33.63
2023-03-12T17:37:40.830Z,33.67
2023-03-12T17:40:09.355Z,33.50
2023-03-12T17:42:37.888Z,33.31
2023-03-12T17:45:06.695Z,33.58
2023-03-12T17:47:34.240Z,33.48
2023-03-12T17:50:01.533Z,34.10
2023-03-12T17:52:28.953Z,34.54
2023-03-12T17:54:55.802Z,34.43
2023-03-12T17:57:24.333Z,35.18
2023-03-12T17:59:51.146Z,35.60
2023-03-12T18:02:18.171Z,35.74
2023-03-12T18:04:45.026Z,36.11
2023-03-12T18:07:12.158Z,36.07
2023-03-12T18:09:39.271Z,36.16
2023-03-12T18:12:06.266Z,36.32
2023-03-12T18:14:33.122Z,36.09
2023-03-12T18:16:59.740Z,36.36
2023-03-12T18:19:26.586Z,36.06
2023-03-12T18:21:53.417Z,36.22
2023-03-12T18:24:20.056Z,36.31
2023-03-12T18:26:48.957Z,36.00
2023-03-12T18:29:15.588Z,35.81
2023-03-12T18:31:42.381Z,36.10
2023-03-12T18:34:09.281Z,36.28
2023-03-12T18:36:35.925Z,36.47
2023-03-12T18:39:04.517Z,35.79
2023-03-12T18:41:32.377Z,35.92
2023-03-12T18:43:59.734Z,36.41
2023-03-12T18:46:27.754Z,36.22
2023-03-12T18:48:54.642Z,35.98
2023-03-12T18:51:21.514Z,36.00
2023-03-12T18:53:48.311Z,36.28
2023-03-12T18:56:15.077Z,35.96
2023-03-12T18:58:42.151Z,36.15
2023-03-12T19:01:08.925Z,36.15
2023-03-12T19:03:35.810Z,35.92
2023-03-12T19:06:06.952Z,36.04
2023-03-12T19:08:36.563Z,36.52
2023-03-12T19:11:09.168Z,36.28
2023-03-12T19:13:36.079Z,36.84
2023-03-12T19:16:07.753Z,37.42
2023-03-12T19:18:37.236Z,37.49
2023-03-12T19:21:06.777Z,37.43
2023-03-12T19:23:33.476Z,37.30
2023-03-12T19:26:00.058Z,37.15
2023-03-12T19:28:26.760Z,37.15
2023-03-12T19:31:00.079Z,37.57
2023-03-12T19:33:28.183Z,37.50
2023-03-12T19:35:55.466Z,37.93
2023-03-12T19:38:22.904Z,37.53
2023-03-12T19:40:50.602Z,37.80
2023-03-12T19:43:18.213Z,37.90
2023-03-12T19:45:45.328Z,37.77
2023-03-12T19:48:13.372Z,37.96
2023-03-12T19:50:40.649Z,38.07
2023-03-12T19:53:07.678Z,38.33
2023-03-12T19:55:34.209Z,37.88
2023-03-12T19:58:01.019Z,38.64
2023-03-12T20:00:28.987Z,38.25
2023-03-12T20:02:55.989Z,38.62
2023-03-12T20:05:22.801Z,38.63
2023-03-12T20:07:49.384Z,38.63
2023-03-12T20:10:16.197Z,38.86
2023-03-12T20:12:43.039Z,38.92
2023-03-12T20:15:09.815Z,38.84
2023-03-12T20:17:36.411Z,39.20
2023-03-12T20:20:05.717Z,39.44
2023-03-12T20:22:35.617Z,40.04
2023-03-12T20:25:05.030Z,39.89
2023-03-12T20:27:33.697Z,40.31
2023-03-12T20:30:00.548Z,40.47
2023-03-12T20:32:28.245Z,40.24
2023-03-12T20:34:55.873Z,39.91
2023-03-12T20:37:22.824Z,40.13
2023-03-12T20:39:49.472Z,40.45
2023-03-12T20:42:16.207Z,40.30
2023-03-12T20:44:42.946Z,40.54
2023-03-12T20:47:09.919Z,40.95
2023-03-12T20:49:36.776Z,40.96
2023-03-12T20:52:03.506Z,41.20
2023-03-12T20:54:30.230Z,41.22
2023-03-12T20:56:56.866Z,41.51
2023-03-12T20:59:23.829Z,42.05
2023-03-12T21:01:50.448Z,41.91
2023-03-12T21:04:17.434Z,41.92
2023-03-12T21:06:44.649Z,41.97
2023-03-12T21:09:11.393Z,41.62
2023-03-12T21:11:39.557Z,41.90
2023-03-12T21:14:06.209Z,42.23
2023-03-12T21:16:33.154Z,42.04
2023-03-12T21:19:00.197Z,41.83
2023-03-12T21:21:26.938Z,41.45
2023-03-12T21:23:53.590Z,42.69
2023-03-12T21:26:21.434Z,43.39
2023-03-12T21:28:48.072Z,43.26
2023-03-12T21:31:16.485Z,43.07
2023-03-12T21:33:43.736Z,43.23
2023-03-12T21:36:13.009Z,42.72
2023-03-12T21:38:42.305Z,42.64
2023-03-12T21:41:14.323Z,42.91
2023-03-12T21:43:41.829Z,43.22
2023-03-12T21:46:13.924Z,43.88
2023-03-12T21:48:44.243Z,43.71
2023-03-12T21:51:13.198Z,43.33
2023-03-12T21:53:40.351Z,43.50
2023-03-12T21:56:08.034Z,43.21
2023-03-12T21:58:35.480Z,43.43
2023-03-12T22:01:06.178Z,43.53
2023-03-12T22:03:33.640Z,43.60
2023-03-12T22:06:00.717Z,43.54
2023-03-12T22:08:27.359Z,43.59
2023-03-12T22:10:54.060Z,43.67
2023-03-12T22:13:20.894Z,43.74
2023-03-12T22:15:56.200Z,44.09
2023-03-12T22:18:23.637Z,44.26
2023-03-12T22:20:55.835Z,44.34
2023-03-12T22:23:23.478Z,43.79
2023-03-12T22:25:50.521Z,43.94
2023-03-12T22:28:17.787Z,43.98
2023-03-12T22:30:45.118Z,44.06
2023-03-12T22:33:12.593Z,43.90
2023-03-12T22:35:47.815Z,43.89
2023-03-12T22:38:15.064Z,43.79
2023-03-12T22:40:42.108Z,44.10
2023-03-12T22:43:08.996Z,44.51
2023-03-12T22:45:35.919Z,45.16
2023-03-12T22:48:02.973Z,45.41
2023-03-12T22:50:29.865Z,46.43
2023-03-12T22:52:56.737Z,46.84
2023-03-12T22:55:23.794Z,47.15
2023-03-12T22:57:50.512Z,47.44
2023-03-12T23:00:23.424Z,47.49
2023-03-12T23:02:50.342Z,47.53
2023-03-12T23:05:17.238Z,47.17
2023-03-12T23:07:44.151Z,47.17
2023-03-12T23:10:11.198Z,46.68
2023-03-12T23:12:37.962Z,46.76
2023-03-12T23:15:06.112Z,46.74
2023-03-12T23:17:32.763Z,46.78
2023-03-12T23:19:59.490Z,47.17
2023-03-12T23:22:26.318Z,47.42
2023-03-12T23:24:52.966Z,46.96
2023-03-12T23:27:19.914Z,47.29
2023-03-12T23:29:46.647Z,47.49
2023-03-12T23:32:13.289Z,47.83
2023-03-12T23:34:40.045Z,47.78
2023-03-12T23:37:06.999Z,47.66
2023-03-12T23:39:42.003Z,47.60
2023-03-12T23:42:15.218Z,47.65
2023-03-12T23:44:41.755Z,47.85
2023-03-12T23:47:08.497Z,47.98
2023-03-12T23:49:35.148Z,48.17
2023-03-12T23:52:01.768Z,48.12
2023-03-12T23:54:28.610Z,48.02
2023-03-12T23:56:55.857Z,48.04
2023-03-12T23:59:22.596Z,48.11
